Scipio, UT (84656)

8:47 PM MDT on September 18, 2014 (GMT -0600)
RAWS SEVIER RESERVOIR UT US | Change Station
CLOSE
Current Station
Personal Weather Station
Location: Scipio, UT
Elevation: 5369 ft
Nearby Weather Stations

Elev 5369 ft 39.33 °N, 112.05 °W | Updated 56 minutes ago

Rain
Rain
81 °F
Feels Like 80 °F
N
6
Wind Variable Wind from SSW
Gusts 13.0 mph

Today
High -- | Low -- °F
--% Chance of Precip.
Yesterday
High -- | Low -- °F
Precip. -- in
7:12 AM 7:31 PM
Waning Crescent, 22% visible
Pressure 29.83 in
Visibility 15.0 miles
Clouds Scattered Clouds 8000 ft
Heat Index 80 °F
Dew Point 46 °F
Humidity 29%
Rainfall 0.00 in
Snow Depth 0 in , 0 in , 0 in
UV 0 out of 12
Pollen 5.30 out of 12
Air Quality Not available.
Flu Activity Not available.
METAR KPVU 190155Z 00000KT 15SM SCT080 26/14 A2983

More Conditions Fewer Conditions

Pressure 29.83 in
Visibility 15.0 miles
Clouds Scattered Clouds 8000 ft
Heat Index 80 °F
Dew Point 46 °F
Humidity 29%
Rainfall 0.00 in
Snow Depth 0 in , 0 in , 0 in
UV 0 out of 12
Pollen 5.30 out of 12
Air Quality Not available.
Flu Activity Not available.
METAR KPVU 190155Z 00000KT 15SM SCT080 26/14 A2983

More Conditions Fewer Conditions

10-Day Weather Forecast

Almanac

Astronomy

Sep. 18, 2014 Rise Set
Actual Time 7:12 AM MDT 7:31 PM MDT
Civil Twilight 6:45 AM MDT 7:58 PM MDT
Nautical Twilight 6:14 AM MDT 8:29 PM MDT
Astronomical Twilight 5:42 AM MDT 9:02 PM MDT
Moon 2:09 AM MDT (9/18) 4:24 PM MDT (9/18)
Length of Visible Light 13h 12m
Length of Day
12h 19m
Tomorrow will be 2m 33s shorter.
Waning Crescent, 22% of the Moon is Illuminated
Today
Waning Crescent
Sep 24
New
Oct 1
First Quarter
Oct 8
Full
Oct 15
Last Quarter

Today's Extremes

State Highs State Lows

Community

WunderPhotos

Upload Photos

1,754,546 photos uploaded!

Nearby

Snow Depth

Station Depth Elevation
Ben Lomond Peak 0 in 8000 ft
Rock Creek 0 in 7900 ft
Seeley Creek 0 in 10000 ft
Trout Creek 0 in 9400 ft
Mosby Mountain 0 in 9500 ft

Earthquake Activity

City Distance Mag. Time & Date
No recent earthquake activity has been reported nearby.
Minimum magnitude displayed is 2.5.

Coastal Water Temperatures

Place Temperature
No Stations Reporting

Nearby Weather Stations